الصفحة الرئيسية
METAR-TAF:

METAR-TAF

مطار :

Trevico, إيطاليا

دائرة عرض: 41-03N, خط طول: 015-14E, ارتفاع: 1085 متر

مراقبة الطقس الحالي

تاريخ ووقت الإصدار 23 دقيقة قبل الساعة 11:55UTC
ريح 6 عقدة من الشمال
درجة الحرارة 15°درجة مئوية
الرطوبة 18%
ضغط 1023 hPa
الرؤية 10 كم أو أكثر
الغيوم لا تقل 1500 م ولا وجود لمزنة ركامية السحاب الأسود

METAR: LIRT 101155Z 36006KT CAVOK 15/M09 Q1023 RMK SKC MON W INVIS VAL NIL VIS MIN 9999W

زمن: 14:18 (12:18 UTC)


TAF: مفقودة

أرصاد الطقس والتوقعات من أكثر من 4000 مطار (تقارير الطقس للمطار METAR والتنبؤ بالطقس بالمطارTAF).

المحطات المتاحة هي النقط الصفراء والحمراء على الخريطة.

حرك المؤشر فوق النقطة لمعرفة اسم المحطة.

ثم انقر لمعرفة أرصاد وتوقعات الطقس.

لتغيير الخارطة: اضغط على الأزرار الخضراء مع رمز الصليب الأسود للتكبير. على الزر الأخضر مع شرطة للتصغير، أو على الأسهم الخضراء للخرائط المجاورة.


METAR-TAF: